createdAt,value
2019-02-21T00:02:23.953Z,95367.44
2019-02-21T00:05:00.615Z,95363.32
2019-02-21T00:07:37.589Z,95365.52
2019-02-21T00:10:15.699Z,95356.70
2019-02-21T00:12:57.212Z,95353.46
2019-02-21T00:15:35.882Z,95353.86
2019-02-21T00:18:15.843Z,95357.67
2019-02-21T00:20:53.260Z,95358.52
2019-02-21T00:23:30.970Z,95351.97
2019-02-21T00:26:08.442Z,95350.18
2019-02-21T00:28:46.199Z,95354.15
2019-02-21T00:31:23.246Z,95356.95
2019-02-21T00:34:02.918Z,95360.87
2019-02-21T00:36:40.228Z,95366.50
2019-02-21T00:39:21.916Z,95362.13
2019-02-21T00:41:59.298Z,95357.65
2019-02-21T00:44:36.916Z,95355.26
2019-02-21T00:47:14.462Z,95359.72
2019-02-21T00:49:52.888Z,95358.38
2019-02-21T00:52:31.406Z,95352.98
2019-02-21T00:55:08.326Z,95353.47
2019-02-21T00:57:46.527Z,95356.79
2019-02-21T01:00:25.402Z,95352.05
2019-02-21T01:03:03.591Z,95353.39
2019-02-21T01:05:40.970Z,95351.82
2019-02-21T01:08:19.671Z,95360.35
2019-02-21T01:10:57.337Z,95350.54
2019-02-21T01:13:34.572Z,95347.48
2019-02-21T01:16:10.775Z,95347.17
2019-02-21T01:18:48.498Z,95349.64
2019-02-21T01:21:27.052Z,95349.81
2019-02-21T01:24:05.037Z,95351.55
2019-02-21T01:26:40.996Z,95349.70
2019-02-21T01:29:14.195Z,95350.06
2019-02-21T01:31:46.939Z,95361.09
2019-02-21T01:34:20.030Z,95361.16
2019-02-21T01:36:53.012Z,95359.34
2019-02-21T01:39:25.943Z,95362.45
2019-02-21T01:41:58.820Z,95356.09
2019-02-21T01:44:33.164Z,95359.87
2019-02-21T01:47:05.971Z,95355.27
2019-02-21T01:49:38.659Z,95360.14
2019-02-21T01:52:11.577Z,95357.25
2019-02-21T01:54:44.373Z,95357.21
2019-02-21T01:57:17.156Z,95364.75
2019-02-21T01:59:50.041Z,95361.40
2019-02-21T02:02:22.789Z,95366.80
2019-02-21T02:04:56.617Z,95364.32
2019-02-21T02:07:29.603Z,95372.70
2019-02-21T02:10:02.355Z,95372.52
2019-02-21T02:12:35.322Z,95369.70
2019-02-21T02:15:09.411Z,95374.11
2019-02-21T02:17:43.944Z,95367.73
2019-02-21T02:20:17.085Z,95367.58
2019-02-21T02:22:50.155Z,95374.80
2019-02-21T02:25:23.024Z,95372.77
2019-02-21T02:27:55.962Z,95372.98
2019-02-21T02:30:28.894Z,95382.28
2019-02-21T02:33:02.601Z,95380.94
2019-02-21T02:35:36.705Z,95385.05
2019-02-21T02:38:09.592Z,95394.73
2019-02-21T02:40:42.352Z,95394.12
2019-02-21T02:43:15.240Z,95394.54
2019-02-21T02:45:48.780Z,95394.00
2019-02-21T02:48:21.668Z,95396.94
2019-02-21T02:50:54.564Z,95394.46
2019-02-21T02:53:27.314Z,95393.62
2019-02-21T02:56:00.390Z,95400.80
2019-02-21T02:58:33.233Z,95401.53
2019-02-21T03:01:06.144Z,95405.56
2019-02-21T03:03:39.079Z,95398.61
2019-02-21T03:06:11.965Z,95398.11
2019-02-21T03:08:44.872Z,95398.04
2019-02-21T03:11:17.915Z,95400.23
2019-02-21T03:13:50.843Z,95401.66
2019-02-21T03:16:23.565Z,95405.69
2019-02-21T03:18:56.288Z,95405.50
2019-02-21T03:21:28.993Z,95405.33
2019-02-21T03:24:01.902Z,95410.74
2019-02-21T03:26:36.475Z,95411.88
2019-02-21T03:29:09.512Z,95417.14
2019-02-21T03:31:54.155Z,95421.61
2019-02-21T03:34:19.918Z,95419.02
2019-02-21T03:36:52.718Z,95433.81
2019-02-21T03:39:25.700Z,95440.31
2019-02-21T03:41:58.911Z,95432.95
2019-02-21T03:44:32.185Z,95427.44
2019-02-21T03:47:05.348Z,95426.46
2019-02-21T03:49:38.463Z,95437.33
2019-02-21T03:52:11.573Z,95438.30
2019-02-21T03:54:44.560Z,95444.09
2019-02-21T03:57:18.590Z,95459.11
2019-02-21T03:59:51.533Z,95456.73
2019-02-21T04:02:25.549Z,95453.80
2019-02-21T04:04:58.618Z,95456.01
2019-02-21T04:07:31.563Z,95460.51
2019-02-21T04:10:04.515Z,95467.73
2019-02-21T04:12:37.395Z,95458.71
2019-02-21T04:15:12.169Z,95467.92
2019-02-21T04:17:44.907Z,95477.16
2019-02-21T04:20:17.989Z,95478.55
2019-02-21T04:22:50.762Z,95475.41
2019-02-21T04:25:23.803Z,95473.73
2019-02-21T04:27:56.850Z,95472.57
2019-02-21T04:30:29.700Z,95482.14
2019-02-21T04:33:02.886Z,95487.44
2019-02-21T04:35:35.897Z,95479.94
2019-02-21T04:38:09.031Z,95480.78
2019-02-21T04:40:42.022Z,95478.28
2019-02-21T04:43:14.993Z,95481.97
2019-02-21T04:45:48.101Z,95491.48
2019-02-21T04:48:20.999Z,95500.78
2019-02-21T04:50:54.536Z,95496.61
2019-02-21T04:53:27.393Z,95497.60
2019-02-21T04:56:00.567Z,95500.89
2019-02-21T04:58:33.786Z,95500.95
2019-02-21T05:01:07.308Z,95499.54
2019-02-21T05:03:40.342Z,95501.89
2019-02-21T05:06:13.569Z,95511.91
2019-02-21T05:08:46.597Z,95508.92
2019-02-21T05:11:19.611Z,95503.33
2019-02-21T05:13:52.592Z,95508.23
2019-02-21T05:16:25.665Z,95511.90
2019-02-21T05:18:59.126Z,95514.16
2019-02-21T05:21:32.195Z,95510.34
2019-02-21T05:24:05.464Z,95515.41
2019-02-21T05:26:45.984Z,95521.72
2019-02-21T05:29:19.539Z,95521.16
2019-02-21T05:32:11.431Z,95521.37
2019-02-21T05:35:06.158Z,95524.20
2019-02-21T05:38:13.270Z,95526.10
2019-02-21T05:40:56.004Z,95533.74
2019-02-21T05:43:57.098Z,95536.47
2019-02-21T05:46:52.004Z,95540.23
2019-02-21T05:49:38.397Z,95539.62
2019-02-21T05:52:33.722Z,95546.60
2019-02-21T05:55:28.607Z,95549.44
2019-02-21T05:58:15.505Z,95547.80
2019-02-21T06:01:10.069Z,95550.68
2019-02-21T06:04:01.802Z,95557.64
2019-02-21T06:06:53.546Z,95562.53
2019-02-21T06:09:45.649Z,95564.30
2019-02-21T06:12:37.575Z,95570.95
2019-02-21T06:15:44.831Z,95575.25
2019-02-21T06:18:32.560Z,95581.16
2019-02-21T06:21:27.597Z,95578.58
2019-02-21T06:24:22.714Z,95584.00
2019-02-21T06:27:01.073Z,95582.44
2019-02-21T06:29:40.294Z,95576.31
2019-02-21T06:32:14.554Z,95575.20
2019-02-21T06:34:48.175Z,95584.27
2019-02-21T06:37:21.579Z,95584.45
2019-02-21T06:39:55.165Z,95590.36
2019-02-21T06:42:28.716Z,95593.66
2019-02-21T06:45:02.112Z,95592.02
2019-02-21T06:47:35.805Z,95598.40
2019-02-21T06:50:09.121Z,95598.14
2019-02-21T06:52:42.168Z,95599.84
2019-02-21T06:55:16.659Z,95603.30
2019-02-21T06:57:49.726Z,95602.78
2019-02-21T07:00:22.979Z,95600.22
2019-02-21T07:02:56.099Z,95603.08
2019-02-21T07:05:29.373Z,95614.90
2019-02-21T07:08:02.466Z,95607.38
2019-02-21T07:10:35.525Z,95601.22
2019-02-21T07:13:08.684Z,95598.68
2019-02-21T07:15:41.725Z,95611.73
2019-02-21T07:18:14.916Z,95618.23
2019-02-21T07:20:47.813Z,95617.47
2019-02-21T07:23:21.354Z,95612.13
2019-02-21T07:26:00.533Z,95616.55
2019-02-21T07:28:33.841Z,95619.94
2019-02-21T07:31:07.270Z,95615.80
2019-02-21T07:33:40.875Z,95614.89
2019-02-21T07:36:14.070Z,95615.52
2019-02-21T07:38:47.392Z,95618.93
2019-02-21T07:41:20.810Z,95628.98
2019-02-21T07:43:53.943Z,95623.63
2019-02-21T07:46:27.450Z,95626.93
2019-02-21T07:49:00.557Z,95621.58
2019-02-21T07:51:35.916Z,95608.79
2019-02-21T07:54:08.686Z,95612.89
2019-02-21T07:56:42.527Z,95615.55
2019-02-21T07:59:15.871Z,95613.97
2019-02-21T08:01:50.093Z,95614.45
2019-02-21T08:04:23.376Z,95610.05
2019-02-21T08:06:56.680Z,95606.92
2019-02-21T08:09:29.792Z,95599.58
2019-02-21T08:12:03.254Z,95600.81
2019-02-21T08:14:36.727Z,95597.92
2019-02-21T08:17:10.491Z,95608.16
2019-02-21T08:19:43.949Z,95603.14
2019-02-21T08:22:17.423Z,95599.62
2019-02-21T08:24:50.455Z,95605.44
2019-02-21T08:27:23.651Z,95602.36
2019-02-21T08:29:56.962Z,95592.83
2019-02-21T08:32:37.279Z,95595.35
2019-02-21T08:35:10.448Z,95596.27
2019-02-21T08:37:44.058Z,95597.39
2019-02-21T08:40:17.510Z,95591.30
2019-02-21T08:42:51.161Z,95594.90
2019-02-21T08:45:25.116Z,95604.62
2019-02-21T08:47:58.517Z,95602.02
2019-02-21T08:50:32.238Z,95600.06
2019-02-21T08:53:05.639Z,95603.45
2019-02-21T08:55:40.432Z,95605.22
2019-02-21T08:58:13.947Z,95602.08
2019-02-21T09:00:47.499Z,95601.95
2019-02-21T09:03:20.687Z,95599.69
2019-02-21T09:05:54.303Z,95595.75
2019-02-21T09:08:33.581Z,95605.13
2019-02-21T09:11:04.019Z,95610.53
2019-02-21T09:13:37.361Z,95601.50
2019-02-21T09:16:10.236Z,95599.23
2019-02-21T09:18:43.883Z,95602.75
2019-02-21T09:21:17.096Z,95597.23
2019-02-21T09:24:01.354Z,95598.38
2019-02-21T09:26:34.824Z,95597.47
2019-02-21T09:29:08.248Z,95593.82
2019-02-21T09:31:41.576Z,95590.35
2019-02-21T09:34:21.122Z,95601.19
2019-02-21T09:36:49.488Z,95602.94
2019-02-21T09:39:22.762Z,95600.36
2019-02-21T09:41:55.772Z,95601.80
2019-02-21T09:44:28.878Z,95599.12
2019-02-21T09:47:02.074Z,95600.58
2019-02-21T09:49:35.862Z,95591.75
2019-02-21T09:52:09.110Z,95593.45
2019-02-21T09:54:42.412Z,95596.14
2019-02-21T09:57:16.003Z,95595.65
2019-02-21T09:59:49.349Z,95586.33
2019-02-21T10:02:23.876Z,95579.07
2019-02-21T10:05:04.957Z,95581.65
2019-02-21T10:07:37.169Z,95577.34
2019-02-21T10:10:14.139Z,95567.50
2019-02-21T10:12:47.304Z,95584.90
2019-02-21T10:15:20.688Z,95583.14
2019-02-21T10:17:53.758Z,95578.78
2019-02-21T10:20:27.019Z,95574.97
2019-02-21T10:23:00.351Z,95565.09
2019-02-21T10:25:33.849Z,95565.73
2019-02-21T10:28:07.575Z,95570.28
2019-02-21T10:30:41.054Z,95554.46
2019-02-21T10:33:14.659Z,95556.63
2019-02-21T10:35:47.857Z,95553.02
2019-02-21T10:38:21.806Z,95548.73
2019-02-21T10:40:54.877Z,95543.73
2019-02-21T10:43:28.105Z,95537.20
2019-02-21T10:46:01.573Z,95541.65
2019-02-21T10:48:35.476Z,95543.58
2019-02-21T10:51:09.028Z,95538.62
2019-02-21T10:53:42.337Z,95527.84
2019-02-21T10:56:15.831Z,95523.49
2019-02-21T10:58:49.428Z,95511.09
2019-02-21T11:01:22.882Z,95522.00
2019-02-21T11:03:56.026Z,95521.40
2019-02-21T11:06:29.503Z,95516.52
2019-02-21T11:09:03.072Z,95507.83
2019-02-21T11:11:36.703Z,95513.19
2019-02-21T11:14:10.427Z,95502.80
2019-02-21T11:16:44.142Z,95495.17
2019-02-21T11:19:17.755Z,95500.53
2019-02-21T11:21:51.189Z,95493.11
2019-02-21T11:24:24.739Z,95490.36
2019-02-21T11:27:05.423Z,95480.65
2019-02-21T11:29:43.052Z,95479.15
2019-02-21T11:32:22.081Z,95477.38
2019-02-21T11:35:06.324Z,95480.46
2019-02-21T11:37:46.560Z,95473.09
2019-02-21T11:40:22.827Z,95477.28
2019-02-21T11:43:08.799Z,95477.41
2019-02-21T11:45:55.305Z,95472.96
2019-02-21T11:48:36.381Z,95465.69
2019-02-21T11:51:15.891Z,95460.16
2019-02-21T11:53:53.377Z,95460.34
2019-02-21T11:56:31.988Z,95458.27
2019-02-21T11:59:16.209Z,95444.27
2019-02-21T12:01:53.237Z,95438.43
2019-02-21T12:04:31.781Z,95443.73
2019-02-21T12:07:11.942Z,95445.56
2019-02-21T12:09:55.196Z,95443.06
2019-02-21T12:12:37.432Z,95431.94
2019-02-21T12:15:17.492Z,95431.27
2019-02-21T12:17:56.120Z,95434.48
2019-02-21T12:20:36.496Z,95433.34
2019-02-21T12:23:17.863Z,95427.87
2019-02-21T12:25:59.479Z,95426.07
2019-02-21T12:28:41.447Z,95434.45
2019-02-21T12:31:24.309Z,95431.19
2019-02-21T12:34:01.050Z,95432.84
2019-02-21T12:36:42.240Z,95430.86
2019-02-21T12:39:20.294Z,95426.72
2019-02-21T12:42:00.193Z,95426.08
2019-02-21T12:44:36.695Z,95426.63
2019-02-21T12:47:17.260Z,95423.20
2019-02-21T12:49:57.049Z,95430.64
2019-02-21T12:52:41.994Z,95426.04
2019-02-21T12:55:28.109Z,95415.05
2019-02-21T12:58:02.416Z,95417.67
2019-02-21T13:00:42.244Z,95413.77
2019-02-21T13:03:18.138Z,95411.94
2019-02-21T13:05:51.286Z,95414.53
2019-02-21T13:08:24.190Z,95409.55
2019-02-21T13:10:57.251Z,95407.91
2019-02-21T13:13:30.208Z,95410.29
2019-02-21T13:16:03.163Z,95403.70
2019-02-21T13:18:36.334Z,95402.51
2019-02-21T13:21:09.541Z,95399.85
2019-02-21T13:23:43.049Z,95395.47
2019-02-21T13:26:16.518Z,95383.66
2019-02-21T13:28:50.068Z,95391.13
2019-02-21T13:31:23.385Z,95392.61
2019-02-21T13:33:56.457Z,95386.62
2019-02-21T13:36:29.733Z,95393.69
2019-02-21T13:39:02.609Z,95398.78
2019-02-21T13:41:35.554Z,95396.38
2019-02-21T13:44:09.327Z,95397.09
2019-02-21T13:46:43.006Z,95396.10
2019-02-21T13:49:16.709Z,95398.91
2019-02-21T13:51:50.197Z,95398.73
2019-02-21T13:54:23.392Z,95390.46
2019-02-21T13:56:56.604Z,95399.18
2019-02-21T13:59:30.014Z,95393.06
2019-02-21T14:02:03.319Z,95394.98
2019-02-21T14:04:37.129Z,95396.42
2019-02-21T14:07:10.292Z,95395.17
2019-02-21T14:09:43.570Z,95390.78
2019-02-21T14:12:16.931Z,95388.07
2019-02-21T14:14:50.211Z,95392.02
2019-02-21T14:17:24.126Z,95387.81
2019-02-21T14:19:57.463Z,95388.59
2019-02-21T14:22:30.384Z,95380.02
2019-02-21T14:25:03.927Z,95383.55
2019-02-21T14:27:37.655Z,95380.27
2019-02-21T14:30:17.003Z,95385.25
2019-02-21T14:32:50.364Z,95378.39
2019-02-21T14:35:23.636Z,95380.23
2019-02-21T14:37:56.830Z,95378.06
2019-02-21T14:40:30.217Z,95375.53
2019-02-21T14:43:03.362Z,95374.39
2019-02-21T14:45:36.375Z,95368.67
2019-02-21T14:48:09.509Z,95373.48
2019-02-21T14:50:42.421Z,95373.09
2019-02-21T14:53:15.644Z,95370.42
2019-02-21T14:55:48.768Z,95371.78
2019-02-21T14:58:22.036Z,95367.45
2019-02-21T15:00:55.256Z,95363.37
2019-02-21T15:03:28.425Z,95365.27
2019-02-21T15:06:01.642Z,95371.17
2019-02-21T15:08:35.097Z,95374.28
2019-02-21T15:11:08.389Z,95373.99
2019-02-21T15:13:41.846Z,95376.59
2019-02-21T15:16:15.136Z,95375.97
2019-02-21T15:18:48.814Z,95373.37
2019-02-21T15:21:21.942Z,95376.61
2019-02-21T15:23:55.075Z,95371.62
2019-02-21T15:26:28.029Z,95372.64
2019-02-21T15:29:01.117Z,95377.62
2019-02-21T15:31:34.185Z,95376.45
2019-02-21T15:34:07.546Z,95377.73
2019-02-21T15:36:41.006Z,95382.03
2019-02-21T15:39:14.177Z,95382.52
2019-02-21T15:41:47.455Z,95381.22
2019-02-21T15:44:20.677Z,95376.59
2019-02-21T15:46:53.469Z,95380.32
2019-02-21T15:49:26.523Z,95383.34
2019-02-21T15:51:59.795Z,95383.05
2019-02-21T15:54:32.745Z,95383.66
2019-02-21T15:57:06.726Z,95383.42
2019-02-21T16:02:39.793Z,95390.94
2019-02-21T16:05:13.289Z,95388.64
2019-02-21T16:07:46.486Z,95391.13
2019-02-21T16:10:22.143Z,95390.48
2019-02-21T16:12:56.539Z,95392.25
2019-02-21T16:15:30.493Z,95398.75
2019-02-21T16:18:04.043Z,95402.27
2019-02-21T16:20:37.325Z,95408.19
2019-02-21T16:23:11.541Z,95411.48
2019-02-21T16:25:45.149Z,95413.06
2019-02-21T16:28:18.236Z,95420.30
2019-02-21T16:30:51.604Z,95421.52
2019-02-21T16:33:26.497Z,95428.50
2019-02-21T16:35:59.994Z,95427.88
2019-02-21T16:38:33.536Z,95429.70
2019-02-21T16:41:07.778Z,95428.19
2019-02-21T16:43:41.438Z,95432.73
2019-02-21T16:46:17.275Z,95431.44
2019-02-21T16:48:50.426Z,95437.73
2019-02-21T16:51:23.827Z,95435.80
2019-02-21T16:53:57.713Z,95435.19
2019-02-21T16:56:35.442Z,95439.93
2019-02-21T16:59:09.073Z,95437.89
2019-02-21T17:01:43.318Z,95439.58
2019-02-21T17:04:16.685Z,95447.12
2019-02-21T17:06:50.733Z,95440.02
2019-02-21T17:09:24.213Z,95452.42
2019-02-21T17:11:57.442Z,95447.77
2019-02-21T17:14:30.871Z,95449.95
2019-02-21T17:17:05.200Z,95447.52
2019-02-21T17:19:40.221Z,95451.77
2019-02-21T17:22:13.797Z,95450.34
2019-02-21T17:24:47.378Z,95445.91
2019-02-21T17:27:20.498Z,95449.64
2019-02-21T17:29:59.212Z,95459.27
2019-02-21T17:32:33.074Z,95455.12
2019-02-21T17:35:06.558Z,95454.61
2019-02-21T17:37:39.843Z,95456.45
2019-02-21T17:40:17.063Z,95459.81
2019-02-21T17:42:51.000Z,95456.91
2019-02-21T17:45:27.516Z,95457.66
2019-02-21T17:48:00.891Z,95452.34
2019-02-21T17:50:34.615Z,95451.88
2019-02-21T17:53:08.300Z,95452.02
2019-02-21T17:55:42.692Z,95452.93
2019-02-21T17:58:17.952Z,95451.11
2019-02-21T18:00:51.778Z,95449.77
2019-02-21T18:03:25.142Z,95453.66
2019-02-21T18:05:58.606Z,95447.53
2019-02-21T18:08:32.652Z,95447.92
2019-02-21T18:11:06.081Z,95440.80
2019-02-21T18:13:39.426Z,95440.60
2019-02-21T18:16:12.870Z,95444.19
2019-02-21T18:18:48.701Z,95441.72
2019-02-21T18:21:21.911Z,95439.61
2019-02-21T18:23:54.938Z,95441.80
2019-02-21T18:26:28.563Z,95433.39
2019-02-21T18:29:02.050Z,95437.11
2019-02-21T18:31:35.879Z,95435.30
2019-02-21T18:34:09.254Z,95435.81
2019-02-21T18:36:42.459Z,95440.74
2019-02-21T18:39:19.325Z,95448.62
2019-02-21T18:41:52.783Z,95445.91
2019-02-21T18:44:25.880Z,95449.02
2019-02-21T18:47:01.214Z,95447.86
2019-02-21T18:49:34.903Z,95445.64
2019-02-21T18:52:08.791Z,95443.56
2019-02-21T18:54:42.586Z,95444.13
2019-02-21T18:57:17.161Z,95447.35
2019-02-21T18:59:51.091Z,95447.16
2019-02-21T19:02:24.665Z,95453.20
2019-02-21T19:04:58.340Z,95450.56
2019-02-21T19:07:31.675Z,95453.84
2019-02-21T19:10:06.170Z,95454.11
2019-02-21T19:12:39.356Z,95446.52
2019-02-21T19:15:13.877Z,95450.19
2019-02-21T19:17:47.361Z,95447.95
2019-02-21T19:20:20.577Z,95448.56
2019-02-21T19:22:54.309Z,95450.23
2019-02-21T19:25:27.756Z,95455.16
2019-02-21T19:28:01.038Z,95453.53
2019-02-21T19:30:45.379Z,95451.16
2019-02-21T19:33:18.834Z,95456.30
2019-02-21T19:35:52.030Z,95459.83
2019-02-21T19:38:25.572Z,95454.66
2019-02-21T19:40:59.006Z,95468.80
2019-02-21T19:43:32.376Z,95466.64
2019-02-21T19:46:08.765Z,95463.99
2019-02-21T19:48:42.256Z,95459.46
2019-02-21T19:51:15.939Z,95461.86
2019-02-21T19:53:49.189Z,95463.03
2019-02-21T19:56:23.466Z,95461.99
2019-02-21T19:58:57.175Z,95457.38
2019-02-21T20:01:30.735Z,95455.05
2019-02-21T20:04:04.479Z,95465.55
2019-02-21T20:06:38.450Z,95456.84
2019-02-21T20:09:12.199Z,95450.82
2019-02-21T20:11:45.607Z,95446.64
2019-02-21T20:14:19.213Z,95441.48
2019-02-21T20:16:52.915Z,95439.81
2019-02-21T20:19:26.548Z,95431.88
2019-02-21T20:21:59.849Z,95432.34
2019-02-21T20:24:33.221Z,95431.38
2019-02-21T20:27:06.818Z,95431.70
2019-02-21T20:29:40.631Z,95428.63
2019-02-21T20:32:14.059Z,95429.95
2019-02-21T20:34:47.419Z,95431.13
2019-02-21T20:37:20.849Z,95435.87
2019-02-21T20:39:55.092Z,95430.50
2019-02-21T20:42:31.284Z,95429.23
2019-02-21T20:45:03.926Z,95424.65
2019-02-21T20:47:39.729Z,95425.30
2019-02-21T20:50:13.805Z,95424.16
2019-02-21T20:52:47.163Z,95416.59
2019-02-21T20:55:20.329Z,95417.97
2019-02-21T20:57:53.975Z,95413.20
2019-02-21T21:00:27.554Z,95415.05
2019-02-21T21:03:01.031Z,95411.02
2019-02-21T21:05:34.793Z,95407.94
2019-02-21T21:08:08.694Z,95403.13
2019-02-21T21:10:42.734Z,95403.09
2019-02-21T21:13:16.413Z,95394.04
2019-02-21T21:15:50.433Z,95400.91
2019-02-21T21:18:24.901Z,95400.89
2019-02-21T21:20:58.736Z,95394.77
2019-02-21T21:23:31.810Z,95396.80
2019-02-21T21:26:05.316Z,95393.80
2019-02-21T21:28:39.347Z,95396.71
2019-02-21T21:31:15.236Z,95392.04
2019-02-21T21:33:49.430Z,95395.97
2019-02-21T21:36:22.958Z,95396.50
2019-02-21T21:38:56.427Z,95396.36
2019-02-21T21:41:29.807Z,95393.77
2019-02-21T21:44:02.966Z,95394.97
2019-02-21T21:46:36.218Z,95399.01
2019-02-21T21:49:09.656Z,95399.38
2019-02-21T21:51:43.243Z,95402.30
2019-02-21T21:54:16.392Z,95397.92
2019-02-21T21:56:49.777Z,95399.37
2019-02-21T21:59:23.385Z,95395.92
2019-02-21T22:01:56.603Z,95392.04
2019-02-21T22:04:29.692Z,95396.48
2019-02-21T22:07:03.997Z,95395.66
2019-02-21T22:09:40.620Z,95395.81
2019-02-21T22:12:14.075Z,95399.95
2019-02-21T22:14:49.225Z,95403.75
2019-02-21T22:17:22.589Z,95405.43
2019-02-21T22:19:55.864Z,95393.77
2019-02-21T22:22:29.158Z,95397.95
2019-02-21T22:25:02.896Z,95393.34
2019-02-21T22:27:36.507Z,95399.84
2019-02-21T22:30:12.484Z,95401.03
2019-02-21T22:32:46.189Z,95398.55
2019-02-21T22:35:23.174Z,95403.02
2019-02-21T22:37:56.456Z,95394.50
2019-02-21T22:40:29.723Z,95400.62
2019-02-21T22:43:02.855Z,95399.08
2019-02-21T22:45:36.276Z,95394.70
2019-02-21T22:48:09.948Z,95392.31
2019-02-21T22:50:43.452Z,95390.52
2019-02-21T22:53:17.121Z,95384.52
2019-02-21T22:55:50.484Z,95385.39
2019-02-21T22:58:24.152Z,95384.72
2019-02-21T23:01:37.408Z,95381.48
2019-02-21T23:04:44.083Z,95380.56
2019-02-21T23:07:44.077Z,95380.34
2019-02-21T23:10:17.384Z,95370.48
2019-02-21T23:12:50.536Z,95368.42
2019-02-21T23:15:24.621Z,95370.58
2019-02-21T23:17:57.728Z,95367.52
2019-02-21T23:20:30.731Z,95365.81
2019-02-21T23:23:04.077Z,95365.01
2019-02-21T23:25:37.209Z,95361.77
2019-02-21T23:28:10.370Z,95363.05
2019-02-21T23:30:43.613Z,95356.00
2019-02-21T23:33:17.108Z,95361.72
2019-02-21T23:35:50.219Z,95361.30
2019-02-21T23:38:23.540Z,95363.25
2019-02-21T23:40:56.735Z,95356.17
2019-02-21T23:43:30.143Z,95352.20
2019-02-21T23:46:03.399Z,95354.59
2019-02-21T23:48:36.658Z,95356.02
2019-02-21T23:51:09.989Z,95352.42
2019-02-21T23:53:42.964Z,95352.59
2019-02-21T23:56:15.932Z,95348.09
2019-02-21T23:58:48.940Z,95344.72
